Time;durP1;ratioP1;P1;durP2;ratioP2;P2;SDS_P1;SDS_P2;PMS_P1;PMS_P2;Temp;Humidity;BMP_temperature;BMP_pressure;BME280_temperature;BME280_humidity;BME280_pressure;Samples;Min_cycle;Max_cycle;Signal;HPM_P1;HPM_P2
2022/11/23 00:00:50;;;;;;;2.88;2.88;;;4.90;99.90;;;;;;4240797;28;20047;-86
2022/11/23 00:03:14;;;;;;;4.40;3.13;;;4.90;99.90;;;;;;4246994;28;20077;-86
2022/11/23 00:05:34;;;;;;;2.40;2.40;;;5.00;99.90;;;;;;4250990;28;20323;-86
2022/11/23 00:07:54;;;;;;;3.25;3.25;;;5.00;99.90;;;;;;4234772;28;20034;-86
2022/11/23 00:10:16;;;;;;;2.88;2.88;;;5.00;99.90;;;;;;4254407;28;20239;-85
2022/11/23 00:12:36;;;;;;;3.10;3.10;;;5.00;99.90;;;;;;4234784;28;20054;-86
2022/11/23 00:14:56;;;;;;;3.00;3.00;;;5.00;99.90;;;;;;4249550;28;20054;-86
2022/11/23 00:17:16;;;;;;;3.60;3.60;;;5.00;99.90;;;;;;4249283;28;20354;-86
2022/11/23 00:19:54;;;;;;;3.00;3.00;;;5.00;99.90;;;;;;4237510;28;20108;-86
2022/11/23 00:22:14;;;;;;;4.30;4.10;;;4.90;99.90;;;;;;4235883;28;20119;-86
2022/11/23 00:24:33;;;;;;;4.95;4.85;;;4.90;99.90;;;;;;4249516;28;20043;-86
2022/11/23 00:26:53;;;;;;;4.22;4.15;;;4.90;99.90;;;;;;4248458;28;20061;-86
2022/11/23 00:29:13;;;;;;;3.30;3.30;;;4.90;99.90;;;;;;4251908;28;20061;-86
2022/11/23 00:31:34;;;;;;;3.03;3.03;;;4.80;99.90;;;;;;4232675;28;20046;-86
2022/11/23 00:33:55;;;;;;;3.85;3.85;;;4.80;99.90;;;;;;4247975;28;20101;-86
2022/11/23 00:36:15;;;;;;;5.50;5.40;;;4.80;99.90;;;;;;4235123;28;20157;-86
2022/11/23 00:38:35;;;;;;;6.15;4.32;;;4.80;99.90;;;;;;4249523;28;20072;-86
2022/11/23 00:40:58;;;;;;;3.97;3.92;;;4.80;99.90;;;;;;4232613;28;20413;-86
2022/11/23 00:43:18;;;;;;;9.10;8.55;;;4.80;99.90;;;;;;4248013;28;20290;-86
2022/11/23 00:45:38;;;;;;;3.72;3.63;;;4.80;99.90;;;;;;4237506;28;20051;-86
2022/11/23 00:47:58;;;;;;;3.50;3.50;;;4.80;99.90;;;;;;4233668;28;20090;-86
2022/11/23 00:50:18;;;;;;;3.15;3.00;;;4.80;99.90;;;;;;4247814;28;20045;-85
2022/11/23 00:52:38;;;;;;;3.47;3.47;;;4.80;99.90;;;;;;4246531;28;20043;-85
2022/11/23 00:54:58;;;;;;;4.90;4.80;;;4.80;99.90;;;;;;4248112;28;20057;-86
2022/11/23 00:57:17;;;;;;;7.13;6.85;;;4.80;99.90;;;;;;4249764;28;20057;-85
2022/11/23 00:59:37;;;;;;;11.23;10.02;;;4.80;99.90;;;;;;4246914;28;20045;-86
2022/11/23 01:01:57;;;;;;;3.30;3.30;;;4.80;99.90;;;;;;4235005;28;20078;-86
2022/11/23 01:04:17;;;;;;;5.75;5.45;;;4.80;99.90;;;;;;4245269;28;20172;-86
2022/11/23 01:06:38;;;;;;;3.15;3.05;;;4.70;99.90;;;;;;4251865;28;20042;-86
2022/11/23 01:09:05;;;;;;;2.77;2.77;;;4.70;99.90;;;;;;4231864;28;20244;-86
2022/11/23 01:11:27;;;;;;;2.90;2.90;;;4.80;99.90;;;;;;4246513;28;20324;-86
2022/11/23 01:13:47;;;;;;;3.65;3.65;;;4.80;99.90;;;;;;4245544;28;20116;-86
2022/11/23 01:16:29;;;;;;;3.10;3.10;;;4.80;99.90;;;;;;4237798;28;20059;-86
2022/11/23 01:18:54;;;;;;;2.78;2.78;;;4.90;99.90;;;;;;4246222;28;20051;-86
2022/11/23 01:21:13;;;;;;;4.35;2.88;;;5.00;99.90;;;;;;4240491;28;20038;-86
2022/11/23 01:23:33;;;;;;;3.47;3.47;;;5.10;99.90;;;;;;4244078;28;20273;-86
2022/11/23 01:25:53;;;;;;;4.07;3.88;;;5.00;99.90;;;;;;4246717;27;20046;-85
2022/11/23 01:28:16;;;;;;;3.08;3.08;;;5.00;99.90;;;;;;4245488;28;20057;-86
2022/11/23 01:30:36;;;;;;;2.78;2.78;;;4.90;99.90;;;;;;4233218;28;20051;-86
2022/11/23 01:32:56;;;;;;;11.95;10.13;;;4.90;99.90;;;;;;4248949;28;20148;-86
2022/11/23 01:35:15;;;;;;;8.52;7.93;;;4.80;99.90;;;;;;4245349;28;20050;-86
2022/11/23 01:37:35;;;;;;;6.70;6.38;;;4.80;99.90;;;;;;4238965;28;20508;-85
2022/11/23 01:39:55;;;;;;;4.43;4.32;;;4.90;99.90;;;;;;4232056;28;20068;-86
2022/11/23 01:42:15;;;;;;;4.97;4.85;;;4.80;99.90;;;;;;4245511;28;20051;-86
2022/11/23 01:44:38;;;;;;;3.72;3.72;;;4.80;99.90;;;;;;4234574;28;20050;-86
2022/11/23 01:47:04;;;;;;;3.60;3.60;;;4.70;99.90;;;;;;4246288;28;20366;-86
2022/11/23 01:49:25;;;;;;;3.65;3.65;;;4.70;99.90;;;;;;4229665;28;20046;-86
2022/11/23 01:51:49;;;;;;;4.55;4.35;;;4.60;99.90;;;;;;4247291;28;20095;-86
2022/11/23 01:54:33;;;;;;;3.10;3.10;;;4.70;99.90;;;;;;4234087;28;20039;-86
2022/11/23 01:56:58;;;;;;;2.63;2.63;;;4.70;99.90;;;;;;4231164;28;20046;-86
2022/11/23 01:59:20;;;;;;;3.70;3.60;;;4.60;99.90;;;;;;4248753;28;20034;-86
2022/11/23 02:01:40;;;;;;;3.10;3.10;;;4.60;99.90;;;;;;4247679;28;20047;-86
2022/11/23 02:04:01;;;;;;;3.85;3.85;;;4.60;99.90;;;;;;4247046;28;20365;-86
2022/11/23 02:06:22;;;;;;;3.00;3.00;;;4.50;99.90;;;;;;4247526;28;20370;-85
2022/11/23 02:08:43;;;;;;;3.50;3.50;;;4.60;99.90;;;;;;4241782;28;20038;-86
2022/11/23 02:11:02;;;;;;;3.28;3.20;;;4.50;99.90;;;;;;4235757;28;20115;-86
2022/11/23 02:13:24;;;;;;;3.28;3.25;;;4.50;99.90;;;;;;4242490;28;20038;-86
2022/11/23 02:15:44;;;;;;;3.30;3.22;;;4.40;99.90;;;;;;4245873;28;20054;-86
2022/11/23 02:18:11;;;;;;;3.00;3.00;;;4.40;99.90;;;;;;4232212;28;20255;-86
2022/11/23 02:20:31;;;;;;;3.88;3.78;;;4.40;99.90;;;;;;4239075;28;20046;-86
2022/11/23 02:23:03;;;;;;;4.63;3.20;;;4.30;99.90;;;;;;4247165;28;20365;-86
2022/11/23 02:25:35;;;;;;;4.00;3.85;;;4.30;99.90;;;;;;4238739;28;20050;-86
2022/11/23 02:27:56;;;;;;;2.93;2.93;;;4.40;99.90;;;;;;4230977;28;20051;-86
2022/11/23 02:30:17;;;;;;;3.17;3.08;;;4.30;99.90;;;;;;4232422;28;20121;-86
2022/11/23 02:32:37;;;;;;;4.45;4.38;;;4.40;99.90;;;;;;4231321;28;20077;-86
2022/11/23 02:34:57;;;;;;;4.30;4.10;;;4.40;99.90;;;;;;4235120;28;20051;-86
2022/11/23 02:37:17;;;;;;;4.32;4.22;;;4.50;99.90;;;;;;4231859;28;20242;-86
2022/11/23 02:39:40;;;;;;;3.30;3.30;;;4.50;99.90;;;;;;4248175;28;20152;-85
2022/11/23 02:46:01;;;;;;;3.72;3.72;;;4.60;99.90;;;;;;4250234;28;20068;-86
2022/11/23 02:48:21;;;;;;;4.30;4.20;;;4.60;99.90;;;;;;4234356;28;20096;-86
2022/11/23 02:50:41;;;;;;;3.80;3.80;;;4.70;99.90;;;;;;4248112;28;20050;-86
2022/11/23 02:53:01;;;;;;;3.30;3.30;;;4.70;99.90;;;;;;4249620;28;20057;-86
2022/11/23 02:55:20;;;;;;;4.10;3.92;;;4.60;99.90;;;;;;4241413;28;20119;-86
2022/11/23 02:57:40;;;;;;;2.45;2.38;;;4.60;99.90;;;;;;4247420;28;20046;-86
2022/11/23 03:00:00;;;;;;;3.95;3.95;;;4.60;99.90;;;;;;4237958;28;20046;-86
2022/11/23 03:02:20;;;;;;;4.10;4.00;;;4.60;99.90;;;;;;4247829;28;20084;-86
2022/11/23 03:04:39;;;;;;;3.40;3.40;;;4.60;99.90;;;;;;4236563;28;20050;-86
2022/11/23 03:06:59;;;;;;;3.42;3.17;;;4.60;99.90;;;;;;4239080;28;20065;-86
2022/11/23 03:09:19;;;;;;;4.13;4.10;;;4.60;99.90;;;;;;4235833;28;20090;-86
2022/11/23 03:11:39;;;;;;;3.78;3.78;;;4.60;99.90;;;;;;4234029;28;20102;-86
2022/11/23 03:13:58;;;;;;;4.13;3.92;;;4.50;99.90;;;;;;4235101;28;20716;-86
2022/11/23 03:16:18;;;;;;;4.10;4.00;;;4.50;99.90;;;;;;4252195;28;20422;-86
2022/11/23 03:18:38;;;;;;;4.82;4.63;;;4.50;99.90;;;;;;4249099;28;20073;-86
2022/11/23 03:21:03;;;;;;;6.05;5.85;;;4.40;99.90;;;;;;4234452;28;20370;-86
2022/11/23 03:23:23;;;;;;;6.05;4.97;;;4.30;99.90;;;;;;4249824;28;20050;-86
2022/11/23 03:25:42;;;;;;;3.78;3.67;;;4.30;99.90;;;;;;4249631;28;20416;-86
2022/11/23 03:28:02;;;;;;;4.32;4.30;;;4.20;99.90;;;;;;4241907;28;20066;-86
2022/11/23 03:30:22;;;;;;;4.47;4.40;;;4.20;99.90;;;;;;4250044;28;20230;-86
2022/11/23 03:32:41;;;;;;;4.35;4.25;;;4.10;99.90;;;;;;4235852;28;20050;-86
2022/11/23 03:35:03;;;;;;;4.45;4.35;;;4.10;99.90;;;;;;4234401;28;20079;-85
2022/11/23 03:37:24;;;;;;;3.90;3.90;;;4.10;99.90;;;;;;4235447;28;20081;-86
2022/11/23 03:39:43;;;;;;;4.47;4.25;;;4.10;99.90;;;;;;4247990;28;20377;-86
2022/11/23 03:42:06;;;;;;;;;;;4.20;99.90;;;;;;4247432;28;20353;-86
2022/11/23 03:44:26;;;;;;;4.07;4.07;;;4.30;99.90;;;;;;4249955;28;19956;-86
2022/11/23 03:46:47;;;;;;;4.07;3.97;;;4.30;99.90;;;;;;4245792;28;20066;-86
2022/11/23 03:49:06;;;;;;;4.60;4.53;;;4.20;99.90;;;;;;4241668;28;20058;-86
2022/11/23 03:51:26;;;;;;;3.28;3.28;;;4.30;99.90;;;;;;4249391;28;20402;-86
2022/11/23 03:53:46;;;;;;;3.92;3.72;;;4.30;99.90;;;;;;4244929;28;20449;-86
2022/11/23 03:56:06;;;;;;;4.03;3.83;;;4.30;99.90;;;;;;4236560;28;20318;-86
2022/11/23 03:58:25;;;;;;;3.25;3.25;;;4.20;99.90;;;;;;4252030;28;20077;-86
2022/11/23 04:00:46;;;;;;;4.10;3.90;;;4.20;99.90;;;;;;4248207;28;20047;-85
2022/11/23 04:03:06;;;;;;;3.65;3.47;;;4.30;99.90;;;;;;4246726;28;20370;-86
2022/11/23 04:05:27;;;;;;;5.10;5.00;;;4.20;99.90;;;;;;4234193;28;20046;-86
2022/11/23 04:07:47;;;;;;;3.90;3.80;;;4.20;99.90;;;;;;4246562;28;20043;-86
2022/11/23 04:10:07;;;;;;;11.70;10.63;;;4.20;99.90;;;;;;4236807;28;20081;-86
2022/11/23 04:12:27;;;;;;;22.50;20.50;;;4.10;99.90;;;;;;4246476;28;20119;-86
2022/11/23 04:14:47;;;;;;;8.13;7.90;;;4.00;99.90;;;;;;4249513;28;20046;-86
2022/11/23 04:17:06;;;;;;;3.22;3.22;;;3.90;99.90;;;;;;4245924;28;20119;-86
2022/11/23 04:19:27;;;;;;;3.47;3.47;;;4.00;99.90;;;;;;4246288;28;20050;-85
2022/11/23 04:21:47;;;;;;;6.15;5.95;;;4.00;99.90;;;;;;4248851;28;20046;-86
2022/11/23 04:24:07;;;;;;;5.53;5.13;;;4.00;99.90;;;;;;4234051;28;20051;-86
2022/11/23 04:26:27;;;;;;;4.85;4.75;;;4.00;99.90;;;;;;4245920;28;20311;-86
2022/11/23 04:28:47;;;;;;;5.10;5.00;;;4.00;99.90;;;;;;4240244;28;20055;-86
2022/11/23 04:31:06;;;;;;;4.85;4.85;;;3.90;99.90;;;;;;4231512;28;20045;-86
2022/11/23 04:33:26;;;;;;;4.18;4.13;;;3.90;99.90;;;;;;4248983;28;20260;-86
2022/11/23 04:35:45;;;;;;;4.43;4.43;;;3.90;99.90;;;;;;4231509;28;20055;-86
2022/11/23 04:38:05;;;;;;;3.75;3.75;;;3.90;99.90;;;;;;4231751;28;20362;-86
2022/11/23 04:40:25;;;;;;;5.43;5.22;;;3.80;99.90;;;;;;4239152;28;20378;-86
2022/11/23 04:42:44;;;;;;;6.45;6.10;;;3.80;99.90;;;;;;4240913;28;20366;-86
2022/11/23 04:45:05;;;;;;;5.90;5.70;;;3.80;99.90;;;;;;4233190;28;20051;-86
2022/11/23 04:47:24;;;;;;;5.00;4.90;;;3.80;99.90;;;;;;4234765;28;20051;-86
2022/11/23 04:49:44;;;;;;;5.05;4.80;;;3.70;99.90;;;;;;4234070;28;20078;-86
2022/11/23 04:52:04;;;;;;;3.70;3.70;;;3.80;99.90;;;;;;4251053;28;20107;-86
2022/11/23 04:54:24;;;;;;;4.20;4.10;;;3.90;99.90;;;;;;4240572;28;20397;-86
2022/11/23 04:56:44;;;;;;;4.30;4.30;;;3.90;99.90;;;;;;4248060;28;20063;-86
2022/11/23 04:59:03;;;;;;;3.65;3.65;;;3.80;99.90;;;;;;4245973;28;20045;-86
2022/11/23 05:01:23;;;;;;;4.38;4.28;;;3.70;99.90;;;;;;4232211;28;20080;-86
2022/11/23 05:03:44;;;;;;;3.35;3.35;;;3.70;99.90;;;;;;4245998;27;20073;-86
2022/11/23 05:06:06;;;;;;;6.40;6.00;;;3.70;99.90;;;;;;4232409;28;20054;-86
2022/11/23 05:08:25;;;;;;;169.18;14.15;;;3.60;99.90;;;;;;4239355;28;20448;-86
2022/11/23 05:10:45;;;;;;;83.13;8.80;;;3.60;99.90;;;;;;4238062;28;20388;-86
2022/11/23 05:13:04;;;;;;;238.85;13.98;;;3.50;99.90;;;;;;4237156;28;20074;-86
2022/11/23 05:15:24;;;;;;;273.77;15.18;;;3.40;99.90;;;;;;4228435;28;20062;-86
2022/11/23 05:17:44;;;;;;;149.23;11.32;;;3.30;99.90;;;;;;4246496;28;20124;-86
2022/11/23 05:20:05;;;;;;;151.98;14.35;;;3.20;99.90;;;;;;4233538;28;20140;-86
2022/11/23 05:22:24;;;;;;;147.88;14.10;;;3.20;99.90;;;;;;4247398;28;20050;-86
2022/11/23 05:24:44;;;;;;;95.93;12.70;;;3.20;99.90;;;;;;4233489;28;20058;-86
2022/11/23 05:27:04;;;;;;;94.60;15.23;;;3.30;99.90;;;;;;4234953;28;20060;-86
2022/11/23 05:29:23;;;;;;;19.83;10.07;;;3.20;99.90;;;;;;4233300;28;20065;-86
2022/11/23 05:31:44;;;;;;;23.30;8.15;;;3.20;99.90;;;;;;4233763;28;20054;-86
2022/11/23 05:34:04;;;;;;;16.70;8.40;;;3.20;99.90;;;;;;4248131;28;20049;-86
2022/11/23 05:36:24;;;;;;;7.50;7.00;;;3.20;99.90;;;;;;4234838;28;20097;-86
2022/11/23 05:38:43;;;;;;;33.55;7.78;;;3.20;99.90;;;;;;4249987;28;20070;-86
2022/11/23 05:41:03;;;;;;;58.90;9.25;;;3.20;99.90;;;;;;4239107;28;20078;-86
2022/11/23 05:43:24;;;;;;;95.78;10.57;;;3.10;99.90;;;;;;4235374;28;20223;-86
2022/11/23 05:45:44;;;;;;;128.90;11.13;;;3.10;99.90;;;;;;4234657;28;20239;-86
2022/11/23 05:48:04;;;;;;;144.23;11.75;;;3.00;99.90;;;;;;4247633;28;20389;-87
2022/11/23 05:50:26;;;;;;;151.05;15.48;;;3.00;99.90;;;;;;4247188;28;20093;-86
2022/11/23 05:52:46;;;;;;;159.48;16.38;;;2.90;99.90;;;;;;4240009;28;20080;-86
2022/11/23 05:55:05;;;;;;;80.47;16.40;;;2.90;99.90;;;;;;4235145;28;20401;-85
2022/11/23 05:57:25;;;;;;;112.22;10.38;;;2.90;99.90;;;;;;4246874;28;20090;-86
2022/11/23 05:59:45;;;;;;;102.95;9.27;;;2.90;99.90;;;;;;4247987;28;20053;-86
2022/11/23 06:02:04;;;;;;;61.88;7.97;;;2.90;99.90;;;;;;4232884;28;20035;-86
2022/11/23 06:04:24;;;;;;;61.33;9.32;;;3.00;99.90;;;;;;4246053;28;20251;-86
2022/11/23 06:06:44;;;;;;;13.15;7.65;;;3.00;99.90;;;;;;4245792;28;20046;-86
2022/11/23 06:09:04;;;;;;;123.07;8.48;;;3.10;99.90;;;;;;4233618;28;20120;-86
2022/11/23 06:11:23;;;;;;;56.28;5.80;;;2.90;99.90;;;;;;4233905;28;20042;-86
2022/11/23 06:13:46;;;;;;;35.95;5.80;;;2.80;99.90;;;;;;4232924;28;20445;-86
2022/11/23 06:16:06;;;;;;;4.18;4.18;;;2.80;99.90;;;;;;4231423;28;20043;-86
2022/11/23 06:18:26;;;;;;;4.75;4.75;;;2.80;99.90;;;;;;4236478;28;20051;-86
2022/11/23 06:20:46;;;;;;;8.95;7.00;;;2.90;99.90;;;;;;4237883;28;20061;-89
2022/11/23 06:23:06;;;;;;;39.00;12.13;;;3.00;99.90;;;;;;4236546;28;20043;-88
2022/11/23 06:25:26;;;;;;;40.05;13.50;;;2.90;99.90;;;;;;4237389;28;20103;-89
2022/11/23 06:27:56;;;;;;;41.72;19.38;;;2.70;99.90;;;;;;4236506;28;20259;-89
2022/11/23 06:30:16;;;;;;;144.13;13.88;;;2.70;99.90;;;;;;4231962;28;20065;-89
2022/11/23 06:32:36;;;;;;;63.97;10.75;;;2.70;99.90;;;;;;4235224;28;20058;-89
2022/11/23 06:34:56;;;;;;;129.65;10.75;;;2.70;99.90;;;;;;4238645;28;20047;-89
2022/11/23 06:37:20;;;;;;;66.50;10.00;;;2.70;99.90;;;;;;4252287;28;20050;-89
2022/11/23 06:39:40;;;;;;;155.35;13.80;;;2.60;99.90;;;;;;4236100;28;20077;-88
2022/11/23 06:41:59;;;;;;;88.95;11.18;;;2.70;99.90;;;;;;4234241;28;20258;-88
2022/11/23 06:44:39;;;;;;;71.00;10.52;;;2.60;99.90;;;;;;4241441;28;20145;-88
2022/11/23 06:46:58;;;;;;;62.53;11.07;;;2.50;99.90;;;;;;4239989;28;20051;-89
2022/11/23 06:49:20;;;;;;;69.18;10.77;;;2.50;99.90;;;;;;4239146;28;20110;-88
2022/11/23 06:51:40;;;;;;;101.72;12.75;;;2.60;99.90;;;;;;4234897;28;20308;-88
2022/11/23 06:53:59;;;;;;;62.47;9.38;;;2.50;99.90;;;;;;4249797;28;20113;-88
2022/11/23 06:56:19;;;;;;;73.60;11.05;;;2.60;99.90;;;;;;4240256;28;20087;-88
2022/11/23 06:58:42;;;;;;;113.70;20.10;;;2.60;99.90;;;;;;4237926;28;20039;-89
2022/11/23 07:01:04;;;;;;;88.30;14.65;;;2.60;99.90;;;;;;4238073;28;20055;-88
2022/11/23 07:03:24;;;;;;;75.45;10.73;;;2.60;99.90;;;;;;4249344;28;20038;-88
2022/11/23 07:05:44;;;;;;;138.90;13.40;;;2.60;99.90;;;;;;4235541;28;20092;-87
2022/11/23 07:08:04;;;;;;;129.57;13.95;;;2.60;99.90;;;;;;4229706;28;20376;-88
2022/11/23 07:10:24;;;;;;;210.02;17.85;;;2.50;99.90;;;;;;4233516;28;20120;-88
2022/11/23 07:12:45;;;;;;;275.17;22.83;;;2.60;99.90;;;;;;4246454;28;20073;-87
2022/11/23 07:15:05;;;;;;;140.35;22.13;;;2.60;99.90;;;;;;4231831;28;20046;-88
2022/11/23 07:17:25;;;;;;;76.72;21.95;;;2.60;99.90;;;;;;4236494;28;20081;-88
2022/11/23 07:19:45;;;;;;;119.40;26.30;;;2.60;99.90;;;;;;4239166;28;20089;-87
2022/11/23 07:22:05;;;;;;;135.40;22.55;;;2.60;99.90;;;;;;4248634;28;20077;-88
2022/11/23 07:24:24;;;;;;;33.47;14.35;;;2.60;99.90;;;;;;4249851;28;20050;-88
2022/11/23 07:26:44;;;;;;;86.93;15.63;;;2.70;99.90;;;;;;4232027;28;20416;-88
2022/11/23 07:29:04;;;;;;;18.40;11.82;;;2.70;99.90;;;;;;4238470;28;20073;-88
2022/11/23 07:31:24;;;;;;;89.20;19.95;;;2.80;99.90;;;;;;4234869;28;20404;-88
2022/11/23 07:33:45;;;;;;;269.73;22.20;;;2.80;99.90;;;;;;4236487;28;20047;-87
2022/11/23 07:36:05;;;;;;;386.45;25.77;;;2.80;99.90;;;;;;4249417;28;20234;-88
2022/11/23 07:38:25;;;;;;;219.43;21.45;;;2.80;99.90;;;;;;4244478;28;20226;-88
2022/11/23 07:40:49;;;;;;;178.48;20.55;;;2.80;99.90;;;;;;4249406;28;20047;-87
2022/11/23 07:43:09;;;;;;;464.20;36.10;;;2.90;99.90;;;;;;4237190;28;20103;-88
2022/11/23 07:45:29;;;;;;;98.00;17.95;;;2.80;99.90;;;;;;4250488;28;20074;-87
2022/11/23 07:47:57;;;;;;;185.85;18.63;;;2.80;99.90;;;;;;4240761;28;20396;-89
2022/11/23 07:50:17;;;;;;;173.90;23.17;;;3.00;99.90;;;;;;4239525;28;20056;-88
2022/11/23 07:52:38;;;;;;;322.45;26.25;;;3.00;99.90;;;;;;4241708;28;20077;-88
2022/11/23 07:54:59;;;;;;;331.98;22.13;;;3.00;99.90;;;;;;4243737;28;20047;-88
2022/11/23 07:57:19;;;;;;;187.25;19.95;;;3.00;99.90;;;;;;4250000;28;20046;-88
2022/11/23 07:59:39;;;;;;;136.82;17.25;;;3.10;99.90;;;;;;4246831;28;20047;-87
2022/11/23 08:01:58;;;;;;;93.57;13.82;;;3.20;99.90;;;;;;4251236;28;20042;-88
2022/11/23 08:04:18;;;;;;;97.72;15.73;;;3.30;99.90;;;;;;4237997;28;20108;-88
2022/11/23 08:06:38;;;;;;;92.20;12.45;;;3.30;99.90;;;;;;4235156;28;20065;-88
2022/11/23 08:08:59;;;;;;;39.63;10.88;;;3.30;99.90;;;;;;4240939;28;20112;-88
2022/11/23 08:11:19;;;;;;;36.80;11.60;;;3.30;99.90;;;;;;4235576;28;20046;-89
2022/11/23 08:13:39;;;;;;;65.20;12.43;;;3.40;99.90;;;;;;4250085;28;20058;-88
2022/11/23 08:16:00;;;;;;;73.68;12.02;;;3.50;99.90;;;;;;4235466;28;20058;-88
2022/11/23 08:18:19;;;;;;;68.53;16.00;;;3.50;99.90;;;;;;4247671;28;20062;-87
2022/11/23 08:20:40;;;;;;;296.02;25.35;;;3.50;99.90;;;;;;4235490;28;20112;-86
2022/11/23 08:22:59;;;;;;;180.88;21.20;;;3.50;99.90;;;;;;4249036;28;20065;-87
2022/11/23 08:25:19;;;;;;;11.40;9.98;;;3.50;99.90;;;;;;4248352;28;20101;-87
2022/11/23 08:27:39;;;;;;;8.68;8.23;;;3.50;99.90;;;;;;4230521;28;20108;-87
2022/11/23 08:29:58;;;;;;;11.40;10.82;;;3.50;99.90;;;;;;4248460;28;20045;-87
2022/11/23 08:32:18;;;;;;;10.15;9.68;;;3.60;99.90;;;;;;4233181;28;20412;-87
2022/11/23 08:34:38;;;;;;;18.00;16.60;;;3.70;99.90;;;;;;4237834;28;20046;-87
2022/11/23 08:36:57;;;;;;;19.73;17.95;;;3.70;99.90;;;;;;4233191;28;20049;-86
2022/11/23 08:39:18;;;;;;;8.57;8.32;;;3.80;99.90;;;;;;4229510;28;20066;-86
2022/11/23 08:41:38;;;;;;;7.45;7.25;;;3.80;99.90;;;;;;4239542;28;20072;-87
2022/11/23 08:43:57;;;;;;;6.60;6.30;;;3.80;99.90;;;;;;4233135;28;20075;-87
2022/11/23 08:46:18;;;;;;;9.48;9.00;;;3.90;99.90;;;;;;4246747;28;20053;-87
2022/11/23 08:48:37;;;;;;;20.13;18.23;;;4.00;99.90;;;;;;4245720;28;20046;-87
2022/11/23 08:50:59;;;;;;;9.13;8.82;;;4.10;99.90;;;;;;4246693;28;20356;-87
2022/11/23 08:53:19;;;;;;;6.60;6.50;;;4.10;99.90;;;;;;4234267;28;20042;-87
2022/11/23 08:55:39;;;;;;;16.13;14.77;;;4.20;99.90;;;;;;4232362;28;20073;-87
2022/11/23 08:57:59;;;;;;;6.85;6.55;;;4.20;99.90;;;;;;4248608;28;20062;-87
2022/11/23 09:00:19;;;;;;;4.28;4.18;;;4.30;99.90;;;;;;4233344;28;20144;-87
2022/11/23 09:02:39;;;;;;;4.20;4.15;;;4.40;99.90;;;;;;4240002;28;20034;-87
2022/11/23 09:04:59;;;;;;;4.72;4.63;;;4.50;99.90;;;;;;4248061;28;20097;-87
2022/11/23 09:07:19;;;;;;;4.07;3.97;;;4.90;99.90;;;;;;4240326;28;20094;-87
2022/11/23 09:09:39;;;;;;;5.15;5.05;;;5.10;99.90;;;;;;4248549;28;20069;-87
2022/11/23 09:11:59;;;;;;;5.75;5.28;;;5.00;99.90;;;;;;4248894;28;20064;-86
2022/11/23 09:14:19;;;;;;;6.43;6.32;;;4.90;99.90;;;;;;4232521;28;20395;-87
2022/11/23 09:16:39;;;;;;;4.43;4.22;;;4.90;99.90;;;;;;4234620;28;20047;-87
2022/11/23 09:18:59;;;;;;;4.50;4.40;;;4.90;99.90;;;;;;4239619;28;20093;-87
2022/11/23 09:21:20;;;;;;;6.40;5.93;;;5.00;99.90;;;;;;4247527;28;20115;-87
2022/11/23 09:23:40;;;;;;;10.02;9.45;;;5.20;99.90;;;;;;4245540;28;20119;-88
2022/11/23 09:26:01;;;;;;;7.53;7.32;;;5.20;99.90;;;;;;4230517;28;20146;-87
2022/11/23 09:28:23;;;;;;;5.47;5.22;;;5.30;99.90;;;;;;4228448;28;20078;-87
2022/11/23 09:30:43;;;;;;;7.13;6.55;;;5.50;99.90;;;;;;4240773;28;20080;-87
2022/11/23 09:33:03;;;;;;;4.45;4.35;;;5.60;99.90;;;;;;4233347;28;20038;-87
2022/11/23 09:35:24;;;;;;;10.27;9.60;;;5.70;99.90;;;;;;4247616;28;20046;-87
2022/11/23 09:37:44;;;;;;;7.20;6.95;;;5.90;99.90;;;;;;4232660;28;20111;-87
2022/11/23 09:40:04;;;;;;;9.23;8.57;;;6.00;99.90;;;;;;4249231;28;20072;-87
2022/11/23 09:42:47;;;;;;;16.63;15.13;;;6.10;99.90;;;;;;4233745;28;20063;-87
2022/11/23 09:45:19;;;;;;;3.13;3.13;;;6.30;99.90;;;;;;4247099;28;20042;-87
2022/11/23 09:48:00;;;;;;;2.50;2.50;;;6.30;99.90;;;;;;4250530;28;20042;-87
2022/11/23 09:50:40;;;;;;;2.20;2.13;;;6.30;99.90;;;;;;4245072;28;20053;-87
2022/11/23 09:53:06;;;;;;;12.25;11.27;;;6.50;99.90;;;;;;4248373;28;20400;-88
2022/11/23 09:55:39;;;;;;;5.03;4.93;;;6.70;99.90;;;;;;4231367;28;20047;-87
2022/11/23 09:58:03;;;;;;;10.25;9.30;;;6.90;99.90;;;;;;4244306;28;20129;-87
2022/11/23 10:00:24;;;;;;;16.27;13.13;;;7.00;99.90;;;;;;4236457;28;20035;-88
2022/11/23 10:02:45;;;;;;;47.88;21.88;;;7.20;99.90;;;;;;4245956;28;20054;-88
2022/11/23 10:05:06;;;;;;;68.40;32.08;;;7.30;99.90;;;;;;4235349;28;20074;-87
2022/11/23 10:07:59;;;;;;;35.30;16.45;;;7.40;99.90;;;;;;4233711;28;20294;-88
2022/11/23 10:10:26;;;;;;;44.40;20.85;;;7.50;99.90;;;;;;4246487;28;20038;-88
2022/11/23 10:13:16;;;;;;;74.65;31.58;;;7.70;99.90;;;;;;4243906;28;20050;-88
2022/11/23 10:15:44;;;;;;;64.40;29.25;;;7.90;99.90;;;;;;4242651;28;20046;-88
2022/11/23 10:18:37;;;;;;;58.67;28.65;;;8.00;99.90;;;;;;4247104;28;20092;-88
2022/11/23 10:21:28;;;;;;;33.05;17.30;;;8.10;99.90;;;;;;4246846;28;20111;-88
2022/11/23 10:24:10;;;;;;;34.90;17.20;;;8.20;99.90;;;;;;4237946;28;20369;-86
2022/11/23 10:26:41;;;;;;;33.67;17.27;;;8.30;99.90;;;;;;4234070;28;20038;-87
2022/11/23 10:29:14;;;;;;;36.45;17.52;;;8.60;99.90;;;;;;4233749;28;20393;-88
2022/11/23 10:31:35;;;;;;;38.17;18.45;;;8.80;99.90;;;;;;4247425;28;20624;-87
2022/11/23 10:34:10;;;;;;;29.58;16.75;;;8.90;99.90;;;;;;4249666;28;20093;-87
2022/11/23 10:36:33;;;;;;;7.60;6.80;;;9.30;99.90;;;;;;4247368;28;20064;-87
2022/11/23 10:38:58;;;;;;;4.10;3.90;;;9.50;99.90;;;;;;4248226;28;20035;-87
2022/11/23 10:41:18;;;;;;;5.03;4.63;;;9.50;99.90;;;;;;4248286;28;20047;-88
2022/11/23 10:43:58;;;;;;;4.45;4.25;;;9.70;99.90;;;;;;4244423;28;20037;-88
2022/11/23 10:46:26;;;;;;;2.42;2.38;;;9.90;99.90;;;;;;4233504;28;20047;-87
2022/11/23 10:48:46;;;;;;;2.70;2.50;;;9.90;99.90;;;;;;4239677;28;20049;-88
2022/11/23 10:51:30;;;;;;;2.30;2.30;;;9.50;99.90;;;;;;4246196;28;20272;-88
2022/11/23 10:53:54;;;;;;;2.47;2.38;;;9.80;99.90;;;;;;4248346;28;20043;-87
2022/11/23 10:56:14;;;;;;;2.20;2.20;;;9.70;99.90;;;;;;4245296;28;20039;-87
2022/11/23 10:58:43;;;;;;;2.53;2.33;;;9.80;99.90;;;;;;4231345;28;20039;-88
2022/11/23 11:01:22;;;;;;;2.30;2.10;;;9.90;99.90;;;;;;4231622;27;20051;-88
2022/11/23 11:03:41;;;;;;;2.22;2.22;;;10.00;99.90;;;;;;4234875;28;20283;-88
2022/11/23 11:06:02;;;;;;;2.15;2.15;;;10.10;99.90;;;;;;4233252;28;20055;-88
2022/11/23 11:08:34;;;;;;;1.73;1.73;;;10.10;99.90;;;;;;4249368;28;20099;-89
2022/11/23 11:11:07;;;;;;;2.10;2.10;;;10.30;99.90;;;;;;4248393;28;20046;-88
2022/11/23 11:13:36;;;;;;;1.52;1.50;;;10.30;99.90;;;;;;4241430;28;20043;-88
2022/11/23 11:16:01;;;;;;;1.75;1.65;;;10.60;99.90;;;;;;4246233;28;20050;-89
2022/11/23 11:18:23;;;;;;;2.05;2.05;;;10.50;99.90;;;;;;4248304;28;20080;-89
2022/11/23 11:20:44;;;;;;;2.20;2.20;;;10.60;99.90;;;;;;4241446;28;20255;-88
2022/11/23 11:23:16;;;;;;;2.50;2.50;;;10.70;99.90;;;;;;4251400;28;20039;-89
2022/11/23 11:25:38;;;;;;;1.63;1.63;;;11.00;99.90;;;;;;4241126;27;20062;-88
2022/11/23 11:27:58;;;;;;;1.73;1.73;;;10.80;99.90;;;;;;4247706;28;20081;-88
2022/11/23 11:30:23;;;;;;;1.40;1.40;;;10.50;99.90;;;;;;4247874;28;20046;-88
2022/11/23 11:33:01;;;;;;;1.88;1.88;;;10.70;99.90;;;;;;4241552;28;20057;-89
2022/11/23 11:35:31;;;;;;;2.47;2.45;;;10.80;99.90;;;;;;4239573;27;20108;-88
2022/11/23 11:37:56;;;;;;;2.08;1.50;;;11.00;99.90;;;;;;4230379;28;20362;-89
2022/11/23 11:40:32;;;;;;;2.53;2.33;;;11.00;99.90;;;;;;4250042;28;20046;-88
2022/11/23 11:43:10;;;;;;;2.08;2.08;;;11.00;99.90;;;;;;4234575;28;20086;-89
2022/11/23 11:45:39;;;;;;;1.63;1.60;;;11.10;99.90;;;;;;4249162;28;20380;-89
2022/11/23 11:48:23;;;;;;;2.30;2.20;;;11.20;99.90;;;;;;4240993;28;20038;-89
2022/11/23 11:51:08;;;;;;;2.78;2.28;;;11.30;99.90;;;;;;4249499;28;20039;-88
2022/11/23 11:53:50;;;;;;;2.47;2.38;;;11.20;99.90;;;;;;4242957;28;20080;-89
2022/11/23 11:56:38;;;;;;;2.53;2.38;;;11.50;99.90;;;;;;4246877;28;20050;-88
2022/11/23 11:59:08;;;;;;;2.88;2.67;;;11.50;99.90;;;;;;4242080;28;20057;-89
2022/11/23 12:01:37;;;;;;;1.67;1.67;;;11.50;99.90;;;;;;4231545;28;20258;-89
2022/11/23 12:04:10;;;;;;;2.75;2.30;;;11.20;99.90;;;;;;4233750;28;20404;-89
2022/11/23 12:06:45;;;;;;;2.38;2.15;;;11.20;99.90;;;;;;4232708;28;20102;-88
2022/11/23 12:09:16;;;;;;;1.88;1.77;;;11.40;99.90;;;;;;4241406;28;20074;-88
2022/11/23 12:11:36;;;;;;;2.53;2.25;;;11.30;99.90;;;;;;4247825;28;20046;-88
2022/11/23 12:14:01;;;;;;;3.70;3.50;;;11.60;99.90;;;;;;4245772;28;20058;-88
2022/11/23 12:17:05;;;;;;;2.30;2.30;;;11.70;99.90;;;;;;4248645;28;20092;-88
2022/11/23 12:20:17;;;;;;;4.97;4.78;;;11.90;99.90;;;;;;4232752;28;20074;-88
2022/11/23 12:22:46;;;;;;;2.65;2.45;;;11.80;99.90;;;;;;4250579;28;20111;-89
2022/11/23 12:25:25;;;;;;;1.85;1.75;;;11.90;99.90;;;;;;4232050;28;20061;-88
2022/11/23 12:27:50;;;;;;;2.25;2.05;;;11.80;99.90;;;;;;4233398;28;20040;-88
2022/11/23 12:30:41;;;;;;;1.83;1.77;;;11.80;99.90;;;;;;4235159;28;20062;-89